sensor_id;sensor_type;location;lat;lon;timestamp;temperature;humidity
71563;DHT22;59391;52.504;13.438;2023-04-30T00:00:12;11.90;49.50
71563;DHT22;59391;52.504;13.438;2023-04-30T00:02:38;11.90;49.50
71563;DHT22;59391;52.504;13.438;2023-04-30T00:05:04;11.80;49.50
71563;DHT22;59391;52.504;13.438;2023-04-30T00:07:30;11.80;49.20
71563;DHT22;59391;52.504;13.438;2023-04-30T00:09:56;11.70;49.50
71563;DHT22;59391;52.504;13.438;2023-04-30T00:12:22;11.70;49.70
71563;DHT22;59391;52.504;13.438;2023-04-30T00:14:48;11.70;49.90
71563;DHT22;59391;52.504;13.438;2023-04-30T00:17:14;11.60;49.70
71563;DHT22;59391;52.504;13.438;2023-04-30T00:19:40;11.60;49.90
71563;DHT22;59391;52.504;13.438;2023-04-30T00:22:06;11.50;49.70
71563;DHT22;59391;52.504;13.438;2023-04-30T00:24:32;11.50;49.60
71563;DHT22;59391;52.504;13.438;2023-04-30T00:26:57;11.40;49.90
71563;DHT22;59391;52.504;13.438;2023-04-30T00:29:23;11.40;50.10
71563;DHT22;59391;52.504;13.438;2023-04-30T00:31:48;11.40;50.10
71563;DHT22;59391;52.504;13.438;2023-04-30T00:34:14;11.30;50.10
71563;DHT22;59391;52.504;13.438;2023-04-30T00:36:40;11.30;50.10
71563;DHT22;59391;52.504;13.438;2023-04-30T00:39:05;11.30;50.20
71563;DHT22;59391;52.504;13.438;2023-04-30T00:41:33;11.30;50.10
71563;DHT22;59391;52.504;13.438;2023-04-30T00:43:59;11.20;50.20
71563;DHT22;59391;52.504;13.438;2023-04-30T00:46:27;11.20;50.30
71563;DHT22;59391;52.504;13.438;2023-04-30T00:48:53;11.10;50.20
71563;DHT22;59391;52.504;13.438;2023-04-30T00:51:19;11.10;50.20
71563;DHT22;59391;52.504;13.438;2023-04-30T00:53:45;11.00;50.50
71563;DHT22;59391;52.504;13.438;2023-04-30T00:56:12;11.00;50.70
71563;DHT22;59391;52.504;13.438;2023-04-30T00:58:40;11.00;50.50
71563;DHT22;59391;52.504;13.438;2023-04-30T01:01:06;10.90;50.60
71563;DHT22;59391;52.504;13.438;2023-04-30T01:03:32;10.90;50.70
71563;DHT22;59391;52.504;13.438;2023-04-30T01:06:00;10.90;50.80
71563;DHT22;59391;52.504;13.438;2023-04-30T01:08:30;10.90;50.80
71563;DHT22;59391;52.504;13.438;2023-04-30T01:14:09;10.80;51.10
71563;DHT22;59391;52.504;13.438;2023-04-30T01:16:47;10.80;51.00
71563;DHT22;59391;52.504;13.438;2023-04-30T01:19:40;10.80;51.00
71563;DHT22;59391;52.504;13.438;2023-04-30T01:25:20;10.70;51.00
71563;DHT22;59391;52.504;13.438;2023-04-30T01:28:05;10.70;51.10
71563;DHT22;59391;52.504;13.438;2023-04-30T01:30:34;10.60;51.40
71563;DHT22;59391;52.504;13.438;2023-04-30T01:33:01;10.60;51.50
71563;DHT22;59391;52.504;13.438;2023-04-30T01:36:07;10.50;51.80
71563;DHT22;59391;52.504;13.438;2023-04-30T01:39:01;10.50;51.80
71563;DHT22;59391;52.504;13.438;2023-04-30T01:42:03;10.50;51.90
71563;DHT22;59391;52.504;13.438;2023-04-30T01:44:48;10.40;52.10
71563;DHT22;59391;52.504;13.438;2023-04-30T01:47:51;10.30;52.30
71563;DHT22;59391;52.504;13.438;2023-04-30T01:52:59;10.30;52.90
71563;DHT22;59391;52.504;13.438;2023-04-30T01:55:33;10.30;53.10
71563;DHT22;59391;52.504;13.438;2023-04-30T01:58:05;10.20;53.10
71563;DHT22;59391;52.504;13.438;2023-04-30T02:00:33;10.20;53.40
71563;DHT22;59391;52.504;13.438;2023-04-30T02:02:59;10.20;53.50
71563;DHT22;59391;52.504;13.438;2023-04-30T02:05:25;10.20;53.70
71563;DHT22;59391;52.504;13.438;2023-04-30T02:07:51;10.10;53.80
71563;DHT22;59391;52.504;13.438;2023-04-30T02:10:21;10.10;54.10
71563;DHT22;59391;52.504;13.438;2023-04-30T02:12:47;10.10;54.20
71563;DHT22;59391;52.504;13.438;2023-04-30T02:15:13;10.10;54.00
71563;DHT22;59391;52.504;13.438;2023-04-30T02:17:39;10.10;54.00
71563;DHT22;59391;52.504;13.438;2023-04-30T02:20:06;10.00;54.20
71563;DHT22;59391;52.504;13.438;2023-04-30T02:22:32;10.00;54.20
71563;DHT22;59391;52.504;13.438;2023-04-30T02:24:58;10.00;54.50
71563;DHT22;59391;52.504;13.438;2023-04-30T02:27:24;9.90;54.50
71563;DHT22;59391;52.504;13.438;2023-04-30T02:29:52;9.90;54.40
71563;DHT22;59391;52.504;13.438;2023-04-30T02:32:18;9.90;54.40
71563;DHT22;59391;52.504;13.438;2023-04-30T02:34:44;9.80;54.70
71563;DHT22;59391;52.504;13.438;2023-04-30T02:37:10;9.80;54.90
71563;DHT22;59391;52.504;13.438;2023-04-30T02:39:35;9.80;54.90
71563;DHT22;59391;52.504;13.438;2023-04-30T02:42:01;9.80;54.90
71563;DHT22;59391;52.504;13.438;2023-04-30T02:44:27;9.80;55.00
71563;DHT22;59391;52.504;13.438;2023-04-30T02:46:53;9.80;55.00
71563;DHT22;59391;52.504;13.438;2023-04-30T02:49:19;9.70;55.10
71563;DHT22;59391;52.504;13.438;2023-04-30T02:51:46;9.70;55.20
71563;DHT22;59391;52.504;13.438;2023-04-30T02:54:12;9.70;55.20
71563;DHT22;59391;52.504;13.438;2023-04-30T02:56:38;9.70;55.10
71563;DHT22;59391;52.504;13.438;2023-04-30T02:59:04;9.60;55.20
71563;DHT22;59391;52.504;13.438;2023-04-30T03:01:29;9.70;55.30
71563;DHT22;59391;52.504;13.438;2023-04-30T03:03:55;9.60;55.40
71563;DHT22;59391;52.504;13.438;2023-04-30T03:06:22;9.60;55.60
71563;DHT22;59391;52.504;13.438;2023-04-30T03:08:48;9.60;55.50
71563;DHT22;59391;52.504;13.438;2023-04-30T03:11:13;9.60;55.70
71563;DHT22;59391;52.504;13.438;2023-04-30T03:13:39;9.60;55.80
71563;DHT22;59391;52.504;13.438;2023-04-30T03:16:05;9.50;55.70
71563;DHT22;59391;52.504;13.438;2023-04-30T03:18:31;9.50;55.70
71563;DHT22;59391;52.504;13.438;2023-04-30T03:20:57;9.50;55.90
71563;DHT22;59391;52.504;13.438;2023-04-30T03:23:25;9.50;55.80
71563;DHT22;59391;52.504;13.438;2023-04-30T03:25:52;9.50;55.80
71563;DHT22;59391;52.504;13.438;2023-04-30T03:28:17;9.40;55.90
71563;DHT22;59391;52.504;13.438;2023-04-30T03:30:43;9.40;55.90
71563;DHT22;59391;52.504;13.438;2023-04-30T03:33:09;9.30;56.00
71563;DHT22;59391;52.504;13.438;2023-04-30T03:35:34;9.30;56.10
71563;DHT22;59391;52.504;13.438;2023-04-30T03:38:00;9.30;56.10
71563;DHT22;59391;52.504;13.438;2023-04-30T03:40:26;9.30;56.20
71563;DHT22;59391;52.504;13.438;2023-04-30T03:42:52;9.20;56.20
71563;DHT22;59391;52.504;13.438;2023-04-30T03:45:18;9.20;56.20
71563;DHT22;59391;52.504;13.438;2023-04-30T03:47:43;9.20;56.30
71563;DHT22;59391;52.504;13.438;2023-04-30T03:50:10;9.10;56.40
71563;DHT22;59391;52.504;13.438;2023-04-30T03:52:36;9.10;56.40
71563;DHT22;59391;52.504;13.438;2023-04-30T03:55:03;9.10;56.50
71563;DHT22;59391;52.504;13.438;2023-04-30T03:57:29;9.00;56.70
71563;DHT22;59391;52.504;13.438;2023-04-30T03:59:54;9.00;56.80
71563;DHT22;59391;52.504;13.438;2023-04-30T04:02:20;8.90;56.80
71563;DHT22;59391;52.504;13.438;2023-04-30T04:04:46;8.90;56.90
71563;DHT22;59391;52.504;13.438;2023-04-30T04:07:12;8.90;57.00
71563;DHT22;59391;52.504;13.438;2023-04-30T04:09:38;8.80;57.10
71563;DHT22;59391;52.504;13.438;2023-04-30T04:12:04;8.80;57.10
71563;DHT22;59391;52.504;13.438;2023-04-30T04:14:30;8.80;57.20
71563;DHT22;59391;52.504;13.438;2023-04-30T04:16:55;8.80;57.40
71563;DHT22;59391;52.504;13.438;2023-04-30T04:19:22;8.70;57.40
71563;DHT22;59391;52.504;13.438;2023-04-30T04:21:48;8.70;57.40
71563;DHT22;59391;52.504;13.438;2023-04-30T04:24:14;8.70;57.50
71563;DHT22;59391;52.504;13.438;2023-04-30T04:26:39;8.70;57.50
71563;DHT22;59391;52.504;13.438;2023-04-30T04:29:05;8.70;57.60
71563;DHT22;59391;52.504;13.438;2023-04-30T04:31:34;8.60;57.70
71563;DHT22;59391;52.504;13.438;2023-04-30T04:34:03;8.70;57.70
71563;DHT22;59391;52.504;13.438;2023-04-30T04:36:30;8.60;57.70
71563;DHT22;59391;52.504;13.438;2023-04-30T04:38:59;8.60;57.70
71563;DHT22;59391;52.504;13.438;2023-04-30T04:41:32;8.60;57.90
71563;DHT22;59391;52.504;13.438;2023-04-30T04:43:58;8.60;57.80
71563;DHT22;59391;52.504;13.438;2023-04-30T04:46:26;8.60;57.90
71563;DHT22;59391;52.504;13.438;2023-04-30T04:48:52;8.50;58.00
71563;DHT22;59391;52.504;13.438;2023-04-30T04:51:18;8.50;57.80
71563;DHT22;59391;52.504;13.438;2023-04-30T04:53:44;8.50;58.00
71563;DHT22;59391;52.504;13.438;2023-04-30T04:56:10;8.50;57.90
71563;DHT22;59391;52.504;13.438;2023-04-30T04:58:36;8.50;58.00
71563;DHT22;59391;52.504;13.438;2023-04-30T05:01:02;8.40;58.00
71563;DHT22;59391;52.504;13.438;2023-04-30T05:03:29;8.40;58.00
71563;DHT22;59391;52.504;13.438;2023-04-30T05:05:58;8.40;58.10
71563;DHT22;59391;52.504;13.438;2023-04-30T05:08:26;8.40;58.10
71563;DHT22;59391;52.504;13.438;2023-04-30T05:10:52;8.40;58.10
71563;DHT22;59391;52.504;13.438;2023-04-30T05:13:17;8.40;58.00
71563;DHT22;59391;52.504;13.438;2023-04-30T05:15:43;8.50;58.10
71563;DHT22;59391;52.504;13.438;2023-04-30T05:18:09;8.50;58.20
71563;DHT22;59391;52.504;13.438;2023-04-30T05:20:34;8.50;58.00
71563;DHT22;59391;52.504;13.438;2023-04-30T05:23:00;8.50;57.90
71563;DHT22;59391;52.504;13.438;2023-04-30T05:25:26;8.50;57.90
71563;DHT22;59391;52.504;13.438;2023-04-30T05:27:51;8.50;57.90
71563;DHT22;59391;52.504;13.438;2023-04-30T05:30:17;8.50;57.90
71563;DHT22;59391;52.504;13.438;2023-04-30T05:32:43;8.50;57.70
71563;DHT22;59391;52.504;13.438;2023-04-30T05:35:15;8.50;57.80
71563;DHT22;59391;52.504;13.438;2023-04-30T05:37:41;8.50;57.60
71563;DHT22;59391;52.504;13.438;2023-04-30T05:40:07;8.50;57.50
71563;DHT22;59391;52.504;13.438;2023-04-30T05:42:34;8.50;57.40
71563;DHT22;59391;52.504;13.438;2023-04-30T05:45:01;8.60;57.40
71563;DHT22;59391;52.504;13.438;2023-04-30T05:47:27;8.60;57.60
71563;DHT22;59391;52.504;13.438;2023-04-30T05:49:52;8.60;57.40
71563;DHT22;59391;52.504;13.438;2023-04-30T05:52:18;8.60;57.40
71563;DHT22;59391;52.504;13.438;2023-04-30T05:54:43;8.60;57.20
71563;DHT22;59391;52.504;13.438;2023-04-30T05:57:12;8.60;57.10
71563;DHT22;59391;52.504;13.438;2023-04-30T05:59:37;8.70;57.30
71563;DHT22;59391;52.504;13.438;2023-04-30T06:02:03;8.70;57.00
71563;DHT22;59391;52.504;13.438;2023-04-30T06:04:29;8.70;56.60
71563;DHT22;59391;52.504;13.438;2023-04-30T06:06:56;8.70;56.10
71563;DHT22;59391;52.504;13.438;2023-04-30T06:09:21;8.80;56.20
71563;DHT22;59391;52.504;13.438;2023-04-30T06:11:47;8.80;56.50
71563;DHT22;59391;52.504;13.438;2023-04-30T06:14:15;8.80;56.30
71563;DHT22;59391;52.504;13.438;2023-04-30T06:16:42;8.90;56.30
71563;DHT22;59391;52.504;13.438;2023-04-30T06:19:09;8.90;56.30
71563;DHT22;59391;52.504;13.438;2023-04-30T06:21:34;9.00;55.70
71563;DHT22;59391;52.504;13.438;2023-04-30T06:24:00;9.00;55.20
71563;DHT22;59391;52.504;13.438;2023-04-30T06:26:26;9.00;55.10
71563;DHT22;59391;52.504;13.438;2023-04-30T06:28:52;9.00;54.90
71563;DHT22;59391;52.504;13.438;2023-04-30T06:31:17;9.10;55.00
71563;DHT22;59391;52.504;13.438;2023-04-30T06:33:43;9.10;54.90
71563;DHT22;59391;52.504;13.438;2023-04-30T06:36:09;9.20;54.70
71563;DHT22;59391;52.504;13.438;2023-04-30T06:38:34;9.20;54.30
71563;DHT22;59391;52.504;13.438;2023-04-30T06:41:00;9.20;54.00
71563;DHT22;59391;52.504;13.438;2023-04-30T06:43:26;9.30;54.00
71563;DHT22;59391;52.504;13.438;2023-04-30T06:45:51;9.30;53.90
71563;DHT22;59391;52.504;13.438;2023-04-30T06:48:17;9.30;53.70
71563;DHT22;59391;52.504;13.438;2023-04-30T06:50:42;9.40;53.40
71563;DHT22;59391;52.504;13.438;2023-04-30T06:53:12;9.40;53.40
71563;DHT22;59391;52.504;13.438;2023-04-30T06:55:39;9.50;53.10
71563;DHT22;59391;52.504;13.438;2023-04-30T06:58:05;9.50;52.70
71563;DHT22;59391;52.504;13.438;2023-04-30T07:00:32;9.50;52.30
71563;DHT22;59391;52.504;13.438;2023-04-30T07:02:59;9.60;52.60
71563;DHT22;59391;52.504;13.438;2023-04-30T07:05:27;9.60;52.40
71563;DHT22;59391;52.504;13.438;2023-04-30T07:07:53;9.60;52.30
71563;DHT22;59391;52.504;13.438;2023-04-30T07:10:18;9.70;52.20
71563;DHT22;59391;52.504;13.438;2023-04-30T07:12:44;9.70;51.70
71563;DHT22;59391;52.504;13.438;2023-04-30T07:15:13;9.70;51.90
71563;DHT22;59391;52.504;13.438;2023-04-30T07:17:39;9.70;51.90
71563;DHT22;59391;52.504;13.438;2023-04-30T07:20:07;9.80;51.80
71563;DHT22;59391;52.504;13.438;2023-04-30T07:22:33;9.90;51.80
71563;DHT22;59391;52.504;13.438;2023-04-30T07:25:02;9.90;51.50
71563;DHT22;59391;52.504;13.438;2023-04-30T07:27:28;10.00;51.30
71563;DHT22;59391;52.504;13.438;2023-04-30T07:29:54;10.00;50.90
71563;DHT22;59391;52.504;13.438;2023-04-30T07:32:20;10.10;51.40
71563;DHT22;59391;52.504;13.438;2023-04-30T07:34:46;10.10;51.60
71563;DHT22;59391;52.504;13.438;2023-04-30T07:37:13;10.20;51.40
71563;DHT22;59391;52.504;13.438;2023-04-30T07:39:39;10.30;51.10
71563;DHT22;59391;52.504;13.438;2023-04-30T07:42:06;10.40;51.40
71563;DHT22;59391;52.504;13.438;2023-04-30T07:44:31;10.40;50.50
71563;DHT22;59391;52.504;13.438;2023-04-30T07:46:57;10.50;49.60
71563;DHT22;59391;52.504;13.438;2023-04-30T07:49:23;10.50;48.70
71563;DHT22;59391;52.504;13.438;2023-04-30T07:51:50;10.60;48.40
71563;DHT22;59391;52.504;13.438;2023-04-30T07:54:16;10.60;47.80
71563;DHT22;59391;52.504;13.438;2023-04-30T07:56:41;10.60;48.20
71563;DHT22;59391;52.504;13.438;2023-04-30T07:59:07;10.70;47.90
71563;DHT22;59391;52.504;13.438;2023-04-30T08:01:33;10.70;47.30
71563;DHT22;59391;52.504;13.438;2023-04-30T08:03:58;10.70;46.20
71563;DHT22;59391;52.504;13.438;2023-04-30T08:06:27;10.80;46.20
71563;DHT22;59391;52.504;13.438;2023-04-30T08:08:53;10.80;46.50
71563;DHT22;59391;52.504;13.438;2023-04-30T08:11:18;10.80;47.00
71563;DHT22;59391;52.504;13.438;2023-04-30T08:13:44;10.90;47.10
71563;DHT22;59391;52.504;13.438;2023-04-30T08:16:13;11.00;47.20
71563;DHT22;59391;52.504;13.438;2023-04-30T08:18:39;11.00;46.20
71563;DHT22;59391;52.504;13.438;2023-04-30T08:21:09;11.10;46.50
71563;DHT22;59391;52.504;13.438;2023-04-30T08:23:36;11.20;46.20
71563;DHT22;59391;52.504;13.438;2023-04-30T08:26:01;11.30;45.70
71563;DHT22;59391;52.504;13.438;2023-04-30T08:28:27;11.40;43.80
71563;DHT22;59391;52.504;13.438;2023-04-30T08:30:53;11.50;43.90
71563;DHT22;59391;52.504;13.438;2023-04-30T08:33:19;11.60;43.50
71563;DHT22;59391;52.504;13.438;2023-04-30T08:35:45;11.70;43.70
71563;DHT22;59391;52.504;13.438;2023-04-30T08:38:10;12.00;43.30
71563;DHT22;59391;52.504;13.438;2023-04-30T08:40:36;12.20;44.00
71563;DHT22;59391;52.504;13.438;2023-04-30T08:43:07;12.50;42.70
71563;DHT22;59391;52.504;13.438;2023-04-30T08:45:35;12.90;39.20
71563;DHT22;59391;52.504;13.438;2023-04-30T08:48:02;13.20;39.60
71563;DHT22;59391;52.504;13.438;2023-04-30T08:50:29;13.60;40.00
71563;DHT22;59391;52.504;13.438;2023-04-30T08:52:58;13.90;40.10
71563;DHT22;59391;52.504;13.438;2023-04-30T08:55:25;14.20;38.50
71563;DHT22;59391;52.504;13.438;2023-04-30T08:57:55;14.60;37.70
71563;DHT22;59391;52.504;13.438;2023-04-30T09:00:21;14.90;35.60
71563;DHT22;59391;52.504;13.438;2023-04-30T09:02:48;15.20;35.10
71563;DHT22;59391;52.504;13.438;2023-04-30T09:05:16;15.50;34.80
71563;DHT22;59391;52.504;13.438;2023-04-30T09:07:44;15.80;34.20
71563;DHT22;59391;52.504;13.438;2023-04-30T09:10:18;16.10;33.60
71563;DHT22;59391;52.504;13.438;2023-04-30T09:13:05;16.40;33.70
71563;DHT22;59391;52.504;13.438;2023-04-30T09:15:33;16.70;31.10
71563;DHT22;59391;52.504;13.438;2023-04-30T09:18:11;16.90;30.50
71563;DHT22;59391;52.504;13.438;2023-04-30T09:23:21;17.40;32.60
71563;DHT22;59391;52.504;13.438;2023-04-30T09:25:51;17.60;30.40
71563;DHT22;59391;52.504;13.438;2023-04-30T09:28:17;17.80;30.40
71563;DHT22;59391;52.504;13.438;2023-04-30T09:30:48;18.00;30.20
71563;DHT22;59391;52.504;13.438;2023-04-30T09:33:13;18.10;29.80
71563;DHT22;59391;52.504;13.438;2023-04-30T09:35:39;18.30;30.90
71563;DHT22;59391;52.504;13.438;2023-04-30T09:38:06;18.50;29.20
71563;DHT22;59391;52.504;13.438;2023-04-30T09:40:40;18.70;28.50
71563;DHT22;59391;52.504;13.438;2023-04-30T09:43:07;18.80;26.90
71563;DHT22;59391;52.504;13.438;2023-04-30T09:45:44;18.80;27.20
71563;DHT22;59391;52.504;13.438;2023-04-30T09:48:21;18.70;28.60
71563;DHT22;59391;52.504;13.438;2023-04-30T09:50:49;18.70;28.90
71563;DHT22;59391;52.504;13.438;2023-04-30T09:53:16;18.80;27.80
71563;DHT22;59391;52.504;13.438;2023-04-30T09:55:47;18.90;27.20
71563;DHT22;59391;52.504;13.438;2023-04-30T09:58:16;18.90;27.00
71563;DHT22;59391;52.504;13.438;2023-04-30T10:00:44;18.90;26.40
71563;DHT22;59391;52.504;13.438;2023-04-30T10:03:14;18.90;26.30
71563;DHT22;59391;52.504;13.438;2023-04-30T10:05:45;19.00;26.40
71563;DHT22;59391;52.504;13.438;2023-04-30T10:08:38;19.00;26.20
71563;DHT22;59391;52.504;13.438;2023-04-30T10:11:07;19.10;26.30
71563;DHT22;59391;52.504;13.438;2023-04-30T10:16:26;19.30;27.40
71563;DHT22;59391;52.504;13.438;2023-04-30T10:19:06;19.50;26.50
71563;DHT22;59391;52.504;13.438;2023-04-30T10:21:39;19.60;25.50
71563;DHT22;59391;52.504;13.438;2023-04-30T10:24:09;19.60;24.60
71563;DHT22;59391;52.504;13.438;2023-04-30T10:26:38;19.70;23.80
71563;DHT22;59391;52.504;13.438;2023-04-30T10:29:06;19.70;24.50
71563;DHT22;59391;52.504;13.438;2023-04-30T10:31:32;19.80;24.90
71563;DHT22;59391;52.504;13.438;2023-04-30T10:34:11;19.90;24.60
71563;DHT22;59391;52.504;13.438;2023-04-30T10:36:53;20.10;24.10
71563;DHT22;59391;52.504;13.438;2023-04-30T10:39:22;20.30;23.90
71563;DHT22;59391;52.504;13.438;2023-04-30T10:41:58;20.40;22.40
71563;DHT22;59391;52.504;13.438;2023-04-30T10:44:26;20.50;23.80
71563;DHT22;59391;52.504;13.438;2023-04-30T10:46:58;20.60;24.40
71563;DHT22;59391;52.504;13.438;2023-04-30T10:49:26;20.80;23.90
71563;DHT22;59391;52.504;13.438;2023-04-30T10:51:52;21.00;24.80
71563;DHT22;59391;52.504;13.438;2023-04-30T10:54:25;21.10;23.90
71563;DHT22;59391;52.504;13.438;2023-04-30T10:57:07;21.30;23.30
71563;DHT22;59391;52.504;13.438;2023-04-30T11:00:17;21.30;23.50
71563;DHT22;59391;52.504;13.438;2023-04-30T11:02:45;21.40;22.80
71563;DHT22;59391;52.504;13.438;2023-04-30T11:05:14;21.40;23.40
71563;DHT22;59391;52.504;13.438;2023-04-30T11:07:57;21.40;23.70
71563;DHT22;59391;52.504;13.438;2023-04-30T11:10:25;21.40;24.30
71563;DHT22;59391;52.504;13.438;2023-04-30T11:12:54;21.50;23.60
71563;DHT22;59391;52.504;13.438;2023-04-30T11:15:24;21.60;24.60
71563;DHT22;59391;52.504;13.438;2023-04-30T11:17:55;21.70;23.20
71563;DHT22;59391;52.504;13.438;2023-04-30T11:20:25;21.70;23.40
71563;DHT22;59391;52.504;13.438;2023-04-30T11:23:14;21.70;23.80
71563;DHT22;59391;52.504;13.438;2023-04-30T11:25:46;21.80;23.80
71563;DHT22;59391;52.504;13.438;2023-04-30T11:28:16;21.80;23.60
71563;DHT22;59391;52.504;13.438;2023-04-30T11:30:57;21.90;23.40
71563;DHT22;59391;52.504;13.438;2023-04-30T11:33:25;22.00;22.40
71563;DHT22;59391;52.504;13.438;2023-04-30T11:35:56;22.10;23.00
71563;DHT22;59391;52.504;13.438;2023-04-30T11:38:49;22.10;22.70
71563;DHT22;59391;52.504;13.438;2023-04-30T11:41:16;22.30;22.20
71563;DHT22;59391;52.504;13.438;2023-04-30T11:43:55;22.40;22.80
71563;DHT22;59391;52.504;13.438;2023-04-30T11:46:23;22.60;22.80
71563;DHT22;59391;52.504;13.438;2023-04-30T11:48:49;22.80;23.10
71563;DHT22;59391;52.504;13.438;2023-04-30T11:51:16;22.90;23.10
71563;DHT22;59391;52.504;13.438;2023-04-30T11:53:45;23.10;22.50
71563;DHT22;59391;52.504;13.438;2023-04-30T11:56:13;23.20;22.70
71563;DHT22;59391;52.504;13.438;2023-04-30T11:58:41;23.30;22.00
71563;DHT22;59391;52.504;13.438;2023-04-30T12:01:08;23.30;20.30
71563;DHT22;59391;52.504;13.438;2023-04-30T12:03:44;23.20;21.40
71563;DHT22;59391;52.504;13.438;2023-04-30T12:06:24;23.10;21.80
71563;DHT22;59391;52.504;13.438;2023-04-30T12:08:59;23.00;21.60
71563;DHT22;59391;52.504;13.438;2023-04-30T12:11:29;23.00;22.30
71563;DHT22;59391;52.504;13.438;2023-04-30T12:14:11;23.10;22.60
71563;DHT22;59391;52.504;13.438;2023-04-30T12:19:05;23.30;21.60
71563;DHT22;59391;52.504;13.438;2023-04-30T12:21:32;23.40;21.80
71563;DHT22;59391;52.504;13.438;2023-04-30T12:24:01;23.60;21.90
71563;DHT22;59391;52.504;13.438;2023-04-30T12:26:36;23.70;21.90
71563;DHT22;59391;52.504;13.438;2023-04-30T12:29:04;23.70;21.60
71563;DHT22;59391;52.504;13.438;2023-04-30T12:31:32;23.80;21.90
71563;DHT22;59391;52.504;13.438;2023-04-30T12:34:03;23.80;21.60
71563;DHT22;59391;52.504;13.438;2023-04-30T12:36:31;23.70;22.40
71563;DHT22;59391;52.504;13.438;2023-04-30T12:39:19;23.50;22.10
71563;DHT22;59391;52.504;13.438;2023-04-30T12:41:47;23.20;22.00
71563;DHT22;59391;52.504;13.438;2023-04-30T12:46:50;22.80;22.50
71563;DHT22;59391;52.504;13.438;2023-04-30T12:49:34;22.60;22.70
71563;DHT22;59391;52.504;13.438;2023-04-30T12:52:08;22.50;23.10
71563;DHT22;59391;52.504;13.438;2023-04-30T12:54:36;22.40;23.20
71563;DHT22;59391;52.504;13.438;2023-04-30T12:57:11;22.30;23.60
71563;DHT22;59391;52.504;13.438;2023-04-30T12:59:56;22.20;23.00
71563;DHT22;59391;52.504;13.438;2023-04-30T13:02:27;22.10;23.30
71563;DHT22;59391;52.504;13.438;2023-04-30T13:04:55;22.00;23.50
71563;DHT22;59391;52.504;13.438;2023-04-30T13:07:21;21.90;23.60
71563;DHT22;59391;52.504;13.438;2023-04-30T13:09:47;21.90;24.30
71563;DHT22;59391;52.504;13.438;2023-04-30T13:12:12;21.80;24.10
71563;DHT22;59391;52.504;13.438;2023-04-30T13:14:39;21.80;24.10
71563;DHT22;59391;52.504;13.438;2023-04-30T13:17:05;21.80;24.20
71563;DHT22;59391;52.504;13.438;2023-04-30T13:19:32;21.80;24.00
71563;DHT22;59391;52.504;13.438;2023-04-30T13:21:59;21.80;24.60
71563;DHT22;59391;52.504;13.438;2023-04-30T13:24:25;21.90;24.40
71563;DHT22;59391;52.504;13.438;2023-04-30T13:26:51;21.90;24.20
71563;DHT22;59391;52.504;13.438;2023-04-30T13:29:17;22.00;24.20
71563;DHT22;59391;52.504;13.438;2023-04-30T13:31:45;22.10;24.90
71563;DHT22;59391;52.504;13.438;2023-04-30T13:34:13;22.20;24.60
71563;DHT22;59391;52.504;13.438;2023-04-30T13:36:39;22.30;24.10
71563;DHT22;59391;52.504;13.438;2023-04-30T13:39:05;22.40;24.30
71563;DHT22;59391;52.504;13.438;2023-04-30T13:41:31;22.50;24.50
71563;DHT22;59391;52.504;13.438;2023-04-30T13:43:56;22.70;24.50
71563;DHT22;59391;52.504;13.438;2023-04-30T13:46:24;22.80;24.10
71563;DHT22;59391;52.504;13.438;2023-04-30T13:48:50;23.00;24.20
71563;DHT22;59391;52.504;13.438;2023-04-30T13:51:17;23.10;23.80
71563;DHT22;59391;52.504;13.438;2023-04-30T13:53:44;23.30;23.50
71563;DHT22;59391;52.504;13.438;2023-04-30T13:56:10;23.40;23.90
71563;DHT22;59391;52.504;13.438;2023-04-30T13:58:36;23.40;23.50
71563;DHT22;59391;52.504;13.438;2023-04-30T14:01:02;23.50;23.70
71563;DHT22;59391;52.504;13.438;2023-04-30T14:03:28;23.50;23.20
71563;DHT22;59391;52.504;13.438;2023-04-30T14:05:54;23.70;22.90
71563;DHT22;59391;52.504;13.438;2023-04-30T14:08:20;23.80;23.40
71563;DHT22;59391;52.504;13.438;2023-04-30T14:10:48;23.90;23.20
71563;DHT22;59391;52.504;13.438;2023-04-30T14:13:14;23.90;23.20
71563;DHT22;59391;52.504;13.438;2023-04-30T14:15:39;23.90;23.40
71563;DHT22;59391;52.504;13.438;2023-04-30T14:18:26;23.90;23.50
71563;DHT22;59391;52.504;13.438;2023-04-30T14:20:51;24.00;23.70
71563;DHT22;59391;52.504;13.438;2023-04-30T14:23:17;24.10;23.50
71563;DHT22;59391;52.504;13.438;2023-04-30T14:25:42;24.20;23.60
71563;DHT22;59391;52.504;13.438;2023-04-30T14:28:08;24.30;23.10
71563;DHT22;59391;52.504;13.438;2023-04-30T14:30:34;24.40;23.10
71563;DHT22;59391;52.504;13.438;2023-04-30T14:33:00;24.40;22.90
71563;DHT22;59391;52.504;13.438;2023-04-30T14:35:26;24.50;23.00
71563;DHT22;59391;52.504;13.438;2023-04-30T14:37:51;24.60;23.20
71563;DHT22;59391;52.504;13.438;2023-04-30T14:40:17;24.60;22.90
71563;DHT22;59391;52.504;13.438;2023-04-30T14:42:43;24.60;22.50
71563;DHT22;59391;52.504;13.438;2023-04-30T14:45:09;24.60;22.90
71563;DHT22;59391;52.504;13.438;2023-04-30T14:47:35;24.50;23.10
71563;DHT22;59391;52.504;13.438;2023-04-30T14:50:00;24.30;22.80
71563;DHT22;59391;52.504;13.438;2023-04-30T14:52:26;24.20;22.80
71563;DHT22;59391;52.504;13.438;2023-04-30T14:54:52;24.00;22.70
71563;DHT22;59391;52.504;13.438;2023-04-30T14:57:18;23.80;22.90
71563;DHT22;59391;52.504;13.438;2023-04-30T14:59:44;23.70;23.00
71563;DHT22;59391;52.504;13.438;2023-04-30T15:02:09;23.60;23.40
71563;DHT22;59391;52.504;13.438;2023-04-30T15:04:35;23.50;23.50
71563;DHT22;59391;52.504;13.438;2023-04-30T15:07:01;23.50;23.60
71563;DHT22;59391;52.504;13.438;2023-04-30T15:09:27;23.40;23.50
71563;DHT22;59391;52.504;13.438;2023-04-30T15:11:53;23.40;23.60
71563;DHT22;59391;52.504;13.438;2023-04-30T15:14:18;23.40;23.40
71563;DHT22;59391;52.504;13.438;2023-04-30T15:16:44;23.30;23.40
71563;DHT22;59391;52.504;13.438;2023-04-30T15:19:10;23.30;23.20
71563;DHT22;59391;52.504;13.438;2023-04-30T15:21:36;23.20;23.20
71563;DHT22;59391;52.504;13.438;2023-04-30T15:24:02;23.10;23.60
71563;DHT22;59391;52.504;13.438;2023-04-30T15:26:28;23.00;23.50
71563;DHT22;59391;52.504;13.438;2023-04-30T15:28:56;23.00;23.40
71563;DHT22;59391;52.504;13.438;2023-04-30T15:31:22;22.90;23.70
71563;DHT22;59391;52.504;13.438;2023-04-30T15:33:48;22.80;23.50
71563;DHT22;59391;52.504;13.438;2023-04-30T15:36:16;22.70;23.80
71563;DHT22;59391;52.504;13.438;2023-04-30T15:38:42;22.70;23.70
71563;DHT22;59391;52.504;13.438;2023-04-30T15:41:07;22.60;23.90
71563;DHT22;59391;52.504;13.438;2023-04-30T15:43:33;22.50;23.10
71563;DHT22;59391;52.504;13.438;2023-04-30T15:45:59;22.50;23.30